sensor_id;sensor_type;location;lat;lon;timestamp;P1;durP1;ratioP1;P2;durP2;ratioP2
70975;SDS011;58635;51.198;6.010;2022-11-28T00:00:38;8.88;;;5.50;;
70975;SDS011;58635;51.198;6.010;2022-11-28T00:03:04;7.88;;;4.80;;
70975;SDS011;58635;51.198;6.010;2022-11-28T00:05:29;8.13;;;5.30;;
70975;SDS011;58635;51.198;6.010;2022-11-28T00:07:54;9.10;;;5.20;;
70975;SDS011;58635;51.198;6.010;2022-11-28T00:10:20;8.77;;;5.22;;
70975;SDS011;58635;51.198;6.010;2022-11-28T00:12:46;7.38;;;5.10;;
70975;SDS011;58635;51.198;6.010;2022-11-28T00:15:11;8.68;;;5.00;;
70975;SDS011;58635;51.198;6.010;2022-11-28T00:17:37;8.82;;;5.75;;
70975;SDS011;58635;51.198;6.010;2022-11-28T00:20:02;8.10;;;5.30;;
70975;SDS011;58635;51.198;6.010;2022-11-28T00:22:28;7.82;;;4.93;;
70975;SDS011;58635;51.198;6.010;2022-11-28T00:24:54;7.43;;;5.25;;
70975;SDS011;58635;51.198;6.010;2022-11-28T00:27:19;9.20;;;5.43;;
70975;SDS011;58635;51.198;6.010;2022-11-28T00:29:45;8.05;;;5.78;;
70975;SDS011;58635;51.198;6.010;2022-11-28T00:32:10;9.55;;;5.10;;
70975;SDS011;58635;51.198;6.010;2022-11-28T00:34:36;8.38;;;5.90;;
70975;SDS011;58635;51.198;6.010;2022-11-28T00:37:01;8.27;;;5.45;;
70975;SDS011;58635;51.198;6.010;2022-11-28T00:39:26;8.55;;;6.20;;
70975;SDS011;58635;51.198;6.010;2022-11-28T00:41:52;9.27;;;5.88;;
70975;SDS011;58635;51.198;6.010;2022-11-28T00:44:17;8.88;;;5.88;;
70975;SDS011;58635;51.198;6.010;2022-11-28T00:46:42;8.63;;;6.32;;
70975;SDS011;58635;51.198;6.010;2022-11-28T00:49:08;9.90;;;6.07;;
70975;SDS011;58635;51.198;6.010;2022-11-28T00:51:33;9.48;;;5.85;;
70975;SDS011;58635;51.198;6.010;2022-11-28T00:54:00;8.00;;;5.78;;
70975;SDS011;58635;51.198;6.010;2022-11-28T00:56:29;8.63;;;6.00;;
70975;SDS011;58635;51.198;6.010;2022-11-28T00:58:57;9.43;;;6.03;;
70975;SDS011;58635;51.198;6.010;2022-11-28T01:01:24;7.28;;;5.60;;
70975;SDS011;58635;51.198;6.010;2022-11-28T01:03:53;6.55;;;5.43;;
70975;SDS011;58635;51.198;6.010;2022-11-28T01:06:24;7.80;;;5.70;;
70975;SDS011;58635;51.198;6.010;2022-11-28T01:08:58;7.97;;;5.30;;
70975;SDS011;58635;51.198;6.010;2022-11-28T01:11:25;8.07;;;5.65;;
70975;SDS011;58635;51.198;6.010;2022-11-28T01:13:55;9.18;;;6.10;;
70975;SDS011;58635;51.198;6.010;2022-11-28T01:16:21;8.57;;;5.80;;
70975;SDS011;58635;51.198;6.010;2022-11-28T01:18:47;8.13;;;5.65;;
70975;SDS011;58635;51.198;6.010;2022-11-28T01:21:12;7.97;;;5.75;;
70975;SDS011;58635;51.198;6.010;2022-11-28T01:23:38;7.15;;;5.20;;
70975;SDS011;58635;51.198;6.010;2022-11-28T01:26:04;9.00;;;5.65;;
70975;SDS011;58635;51.198;6.010;2022-11-28T01:28:33;8.68;;;5.72;;
70975;SDS011;58635;51.198;6.010;2022-11-28T01:31:06;7.38;;;5.45;;
70975;SDS011;58635;51.198;6.010;2022-11-28T01:33:33;7.47;;;5.57;;
70975;SDS011;58635;51.198;6.010;2022-11-28T01:35:58;7.97;;;5.28;;
70975;SDS011;58635;51.198;6.010;2022-11-28T01:38:24;8.35;;;5.80;;
70975;SDS011;58635;51.198;6.010;2022-11-28T01:40:50;7.65;;;5.32;;
70975;SDS011;58635;51.198;6.010;2022-11-28T01:43:16;8.18;;;5.35;;
70975;SDS011;58635;51.198;6.010;2022-11-28T01:45:42;8.55;;;5.63;;
70975;SDS011;58635;51.198;6.010;2022-11-28T01:48:08;9.85;;;6.03;;
70975;SDS011;58635;51.198;6.010;2022-11-28T01:50:38;8.32;;;5.65;;
70975;SDS011;58635;51.198;6.010;2022-11-28T01:53:05;8.38;;;5.72;;
70975;SDS011;58635;51.198;6.010;2022-11-28T01:55:34;6.72;;;5.13;;
70975;SDS011;58635;51.198;6.010;2022-11-28T01:58:05;9.63;;;5.40;;
70975;SDS011;58635;51.198;6.010;2022-11-28T02:00:31;9.00;;;6.18;;
70975;SDS011;58635;51.198;6.010;2022-11-28T02:03:06;7.25;;;5.43;;
70975;SDS011;58635;51.198;6.010;2022-11-28T02:05:35;8.35;;;6.22;;
70975;SDS011;58635;51.198;6.010;2022-11-28T02:08:01;8.02;;;5.53;;
70975;SDS011;58635;51.198;6.010;2022-11-28T02:10:31;7.25;;;5.53;;
70975;SDS011;58635;51.198;6.010;2022-11-28T02:27:20;9.18;;;6.20;;
70975;SDS011;58635;51.198;6.010;2022-11-28T02:41:19;8.05;;;6.40;;
70975;SDS011;58635;51.198;6.010;2022-11-28T02:44:15;10.05;;;7.00;;
70975;SDS011;58635;51.198;6.010;2022-11-28T02:46:54;8.18;;;6.13;;
70975;SDS011;58635;51.198;6.010;2022-11-28T02:49:27;9.98;;;6.70;;
70975;SDS011;58635;51.198;6.010;2022-11-28T02:52:02;9.57;;;7.55;;
70975;SDS011;58635;51.198;6.010;2022-11-28T02:54:33;7.32;;;6.25;;
70975;SDS011;58635;51.198;6.010;2022-11-28T02:57:01;10.32;;;6.55;;
70975;SDS011;58635;51.198;6.010;2022-11-28T02:59:31;8.40;;;6.15;;
70975;SDS011;58635;51.198;6.010;2022-11-28T03:01:57;9.15;;;6.35;;
70975;SDS011;58635;51.198;6.010;2022-11-28T03:04:36;9.32;;;5.70;;
70975;SDS011;58635;51.198;6.010;2022-11-28T03:07:20;9.63;;;6.00;;
70975;SDS011;58635;51.198;6.010;2022-11-28T03:15:16;7.95;;;5.45;;
70975;SDS011;58635;51.198;6.010;2022-11-28T03:23:35;7.88;;;6.00;;
70975;SDS011;58635;51.198;6.010;2022-11-28T03:26:06;8.18;;;5.90;;
70975;SDS011;58635;51.198;6.010;2022-11-28T03:28:48;7.03;;;5.35;;
70975;SDS011;58635;51.198;6.010;2022-11-28T03:31:38;8.27;;;6.00;;
70975;SDS011;58635;51.198;6.010;2022-11-28T03:34:09;9.88;;;6.28;;
70975;SDS011;58635;51.198;6.010;2022-11-28T03:36:41;7.68;;;5.78;;
70975;SDS011;58635;51.198;6.010;2022-11-28T03:39:11;6.75;;;5.35;;
70975;SDS011;58635;51.198;6.010;2022-11-28T03:41:48;8.55;;;5.80;;
70975;SDS011;58635;51.198;6.010;2022-11-28T03:44:24;8.57;;;5.53;;
70975;SDS011;58635;51.198;6.010;2022-11-28T03:46:53;8.13;;;6.30;;
70975;SDS011;58635;51.198;6.010;2022-11-28T03:49:24;8.27;;;6.07;;
70975;SDS011;58635;51.198;6.010;2022-11-28T03:51:56;9.05;;;6.22;;
70975;SDS011;58635;51.198;6.010;2022-11-28T03:54:34;8.18;;;5.60;;
70975;SDS011;58635;51.198;6.010;2022-11-28T04:05:01;8.60;;;5.30;;
70975;SDS011;58635;51.198;6.010;2022-11-28T04:10:20;7.15;;;5.22;;
70975;SDS011;58635;51.198;6.010;2022-11-28T04:13:00;7.53;;;4.95;;
70975;SDS011;58635;51.198;6.010;2022-11-28T04:15:48;7.90;;;5.20;;
70975;SDS011;58635;51.198;6.010;2022-11-28T04:23:50;7.00;;;4.78;;
70975;SDS011;58635;51.198;6.010;2022-11-28T04:26:26;6.70;;;4.72;;
70975;SDS011;58635;51.198;6.010;2022-11-28T04:28:59;7.20;;;4.47;;
70975;SDS011;58635;51.198;6.010;2022-11-28T04:31:30;6.28;;;4.25;;
70975;SDS011;58635;51.198;6.010;2022-11-28T04:33:57;6.65;;;5.13;;
70975;SDS011;58635;51.198;6.010;2022-11-28T04:36:26;6.25;;;4.30;;
70975;SDS011;58635;51.198;6.010;2022-11-28T04:38:54;7.78;;;4.90;;
70975;SDS011;58635;51.198;6.010;2022-11-28T04:41:32;6.45;;;4.53;;
70975;SDS011;58635;51.198;6.010;2022-11-28T04:44:07;7.07;;;4.72;;
70975;SDS011;58635;51.198;6.010;2022-11-28T04:46:39;5.60;;;4.40;;
70975;SDS011;58635;51.198;6.010;2022-11-28T04:49:08;6.47;;;4.55;;
70975;SDS011;58635;51.198;6.010;2022-11-28T04:54:03;6.97;;;4.70;;
70975;SDS011;58635;51.198;6.010;2022-11-28T04:56:40;6.65;;;4.32;;
70975;SDS011;58635;51.198;6.010;2022-11-28T04:59:10;7.68;;;4.13;;
70975;SDS011;58635;51.198;6.010;2022-11-28T05:01:37;8.15;;;4.78;;
70975;SDS011;58635;51.198;6.010;2022-11-28T05:04:07;7.40;;;4.28;;
70975;SDS011;58635;51.198;6.010;2022-11-28T05:06:34;6.47;;;4.30;;
70975;SDS011;58635;51.198;6.010;2022-11-28T05:09:00;5.93;;;4.05;;
70975;SDS011;58635;51.198;6.010;2022-11-28T05:11:26;5.55;;;3.90;;
70975;SDS011;58635;51.198;6.010;2022-11-28T05:13:52;6.55;;;4.18;;
70975;SDS011;58635;51.198;6.010;2022-11-28T05:16:18;7.13;;;3.40;;
70975;SDS011;58635;51.198;6.010;2022-11-28T05:18:44;5.53;;;3.38;;
70975;SDS011;58635;51.198;6.010;2022-11-28T05:21:10;6.35;;;3.50;;
70975;SDS011;58635;51.198;6.010;2022-11-28T05:23:39;4.68;;;3.20;;
70975;SDS011;58635;51.198;6.010;2022-11-28T05:26:07;5.40;;;3.25;;
70975;SDS011;58635;51.198;6.010;2022-11-28T05:28:34;4.57;;;3.00;;
70975;SDS011;58635;51.198;6.010;2022-11-28T05:31:00;6.13;;;3.10;;
70975;SDS011;58635;51.198;6.010;2022-11-28T05:33:30;6.38;;;3.22;;
70975;SDS011;58635;51.198;6.010;2022-11-28T05:36:01;4.18;;;2.75;;
70975;SDS011;58635;51.198;6.010;2022-11-28T05:38:28;4.88;;;3.30;;
70975;SDS011;58635;51.198;6.010;2022-11-28T05:40:53;6.13;;;3.55;;
70975;SDS011;58635;51.198;6.010;2022-11-28T05:43:19;4.97;;;3.10;;
70975;SDS011;58635;51.198;6.010;2022-11-28T05:45:44;5.80;;;2.80;;
70975;SDS011;58635;51.198;6.010;2022-11-28T05:48:10;5.07;;;3.13;;
70975;SDS011;58635;51.198;6.010;2022-11-28T05:50:39;4.80;;;3.08;;
70975;SDS011;58635;51.198;6.010;2022-11-28T05:53:05;5.28;;;3.25;;
70975;SDS011;58635;51.198;6.010;2022-11-28T05:55:31;6.97;;;3.75;;
70975;SDS011;58635;51.198;6.010;2022-11-28T05:57:56;5.45;;;3.78;;
70975;SDS011;58635;51.198;6.010;2022-11-28T06:00:21;6.93;;;3.72;;
70975;SDS011;58635;51.198;6.010;2022-11-28T06:02:47;6.00;;;4.10;;
70975;SDS011;58635;51.198;6.010;2022-11-28T06:05:12;6.10;;;4.40;;
70975;SDS011;58635;51.198;6.010;2022-11-28T06:07:38;6.65;;;4.07;;
70975;SDS011;58635;51.198;6.010;2022-11-28T06:10:04;5.25;;;4.07;;
70975;SDS011;58635;51.198;6.010;2022-11-28T06:12:31;5.95;;;3.85;;
70975;SDS011;58635;51.198;6.010;2022-11-28T06:14:56;6.20;;;3.67;;
70975;SDS011;58635;51.198;6.010;2022-11-28T06:17:22;6.07;;;3.97;;
70975;SDS011;58635;51.198;6.010;2022-11-28T06:19:47;8.10;;;3.70;;
70975;SDS011;58635;51.198;6.010;2022-11-28T06:22:12;6.72;;;3.65;;
70975;SDS011;58635;51.198;6.010;2022-11-28T06:24:38;5.85;;;3.35;;
70975;SDS011;58635;51.198;6.010;2022-11-28T06:27:03;4.90;;;3.40;;
70975;SDS011;58635;51.198;6.010;2022-11-28T06:29:29;6.63;;;3.72;;
70975;SDS011;58635;51.198;6.010;2022-11-28T06:31:54;5.28;;;3.38;;
70975;SDS011;58635;51.198;6.010;2022-11-28T06:34:20;5.30;;;3.80;;
70975;SDS011;58635;51.198;6.010;2022-11-28T06:36:46;6.10;;;3.58;;
70975;SDS011;58635;51.198;6.010;2022-11-28T06:39:12;5.03;;;3.45;;
70975;SDS011;58635;51.198;6.010;2022-11-28T06:41:39;7.53;;;4.00;;
70975;SDS011;58635;51.198;6.010;2022-11-28T06:44:05;6.53;;;3.97;;
70975;SDS011;58635;51.198;6.010;2022-11-28T06:46:30;6.05;;;3.95;;
70975;SDS011;58635;51.198;6.010;2022-11-28T06:48:55;7.85;;;3.53;;
70975;SDS011;58635;51.198;6.010;2022-11-28T06:51:21;5.18;;;3.17;;
70975;SDS011;58635;51.198;6.010;2022-11-28T06:53:46;8.15;;;4.00;;
70975;SDS011;58635;51.198;6.010;2022-11-28T06:56:17;6.78;;;3.50;;
70975;SDS011;58635;51.198;6.010;2022-11-28T06:58:43;6.65;;;3.90;;
70975;SDS011;58635;51.198;6.010;2022-11-28T07:01:11;8.18;;;3.70;;
70975;SDS011;58635;51.198;6.010;2022-11-28T07:03:39;6.05;;;3.85;;
70975;SDS011;58635;51.198;6.010;2022-11-28T07:06:05;14.48;;;4.32;;
70975;SDS011;58635;51.198;6.010;2022-11-28T07:08:32;7.80;;;4.20;;
70975;SDS011;58635;51.198;6.010;2022-11-28T07:11:01;6.10;;;3.92;;
70975;SDS011;58635;51.198;6.010;2022-11-28T07:13:32;9.27;;;3.50;;
70975;SDS011;58635;51.198;6.010;2022-11-28T07:15:57;8.88;;;4.10;;
70975;SDS011;58635;51.198;6.010;2022-11-28T07:18:22;8.43;;;4.18;;
70975;SDS011;58635;51.198;6.010;2022-11-28T07:20:48;8.52;;;4.15;;
70975;SDS011;58635;51.198;6.010;2022-11-28T07:23:13;7.18;;;3.80;;
70975;SDS011;58635;51.198;6.010;2022-11-28T07:25:39;5.43;;;3.67;;
70975;SDS011;58635;51.198;6.010;2022-11-28T07:28:04;8.55;;;4.35;;
70975;SDS011;58635;51.198;6.010;2022-11-28T07:30:30;6.63;;;3.65;;
70975;SDS011;58635;51.198;6.010;2022-11-28T07:32:55;5.55;;;3.67;;
70975;SDS011;58635;51.198;6.010;2022-11-28T07:35:20;8.50;;;3.90;;
70975;SDS011;58635;51.198;6.010;2022-11-28T07:37:46;6.10;;;3.80;;
70975;SDS011;58635;51.198;6.010;2022-11-28T07:40:11;8.70;;;3.88;;
70975;SDS011;58635;51.198;6.010;2022-11-28T07:42:37;7.20;;;3.67;;
70975;SDS011;58635;51.198;6.010;2022-11-28T07:45:03;7.25;;;4.03;;
70975;SDS011;58635;51.198;6.010;2022-11-28T07:47:28;7.90;;;3.95;;
70975;SDS011;58635;51.198;6.010;2022-11-28T07:49:55;5.13;;;3.80;;
70975;SDS011;58635;51.198;6.010;2022-11-28T07:52:20;9.10;;;3.90;;
70975;SDS011;58635;51.198;6.010;2022-11-28T07:54:47;8.52;;;3.67;;
70975;SDS011;58635;51.198;6.010;2022-11-28T07:57:13;8.63;;;3.92;;
70975;SDS011;58635;51.198;6.010;2022-11-28T07:59:38;6.85;;;3.38;;
70975;SDS011;58635;51.198;6.010;2022-11-28T08:02:04;6.03;;;3.60;;
70975;SDS011;58635;51.198;6.010;2022-11-28T08:04:29;6.68;;;3.53;;
70975;SDS011;58635;51.198;6.010;2022-11-28T08:06:54;7.43;;;3.22;;
70975;SDS011;58635;51.198;6.010;2022-11-28T08:09:21;7.25;;;3.97;;
70975;SDS011;58635;51.198;6.010;2022-11-28T08:11:46;6.53;;;3.88;;
70975;SDS011;58635;51.198;6.010;2022-11-28T08:14:13;5.57;;;3.45;;
70975;SDS011;58635;51.198;6.010;2022-11-28T08:16:38;6.72;;;4.05;;
70975;SDS011;58635;51.198;6.010;2022-11-28T08:19:08;6.88;;;3.63;;
70975;SDS011;58635;51.198;6.010;2022-11-28T08:21:35;6.50;;;3.72;;
70975;SDS011;58635;51.198;6.010;2022-11-28T08:24:01;6.38;;;3.70;;
70975;SDS011;58635;51.198;6.010;2022-11-28T08:26:30;5.90;;;3.95;;
70975;SDS011;58635;51.198;6.010;2022-11-28T08:28:57;6.50;;;4.30;;
70975;SDS011;58635;51.198;6.010;2022-11-28T08:31:25;8.70;;;5.30;;
70975;SDS011;58635;51.198;6.010;2022-11-28T08:33:55;6.82;;;4.82;;
70975;SDS011;58635;51.198;6.010;2022-11-28T08:36:22;7.95;;;4.90;;
70975;SDS011;58635;51.198;6.010;2022-11-28T08:38:48;6.97;;;4.70;;
70975;SDS011;58635;51.198;6.010;2022-11-28T08:41:15;7.68;;;4.28;;
70975;SDS011;58635;51.198;6.010;2022-11-28T08:43:43;6.70;;;4.15;;
70975;SDS011;58635;51.198;6.010;2022-11-28T08:46:10;6.30;;;3.75;;
70975;SDS011;58635;51.198;6.010;2022-11-28T08:48:37;6.38;;;3.67;;
70975;SDS011;58635;51.198;6.010;2022-11-28T08:51:04;6.15;;;3.67;;
70975;SDS011;58635;51.198;6.010;2022-11-28T08:53:30;5.88;;;3.70;;
70975;SDS011;58635;51.198;6.010;2022-11-28T08:55:56;6.18;;;3.85;;
70975;SDS011;58635;51.198;6.010;2022-11-28T08:58:22;6.85;;;4.03;;
70975;SDS011;58635;51.198;6.010;2022-11-28T09:00:47;6.25;;;3.50;;
70975;SDS011;58635;51.198;6.010;2022-11-28T09:03:13;5.53;;;3.35;;
70975;SDS011;58635;51.198;6.010;2022-11-28T09:05:41;5.53;;;3.47;;
70975;SDS011;58635;51.198;6.010;2022-11-28T09:08:09;6.30;;;4.10;;
70975;SDS011;58635;51.198;6.010;2022-11-28T09:10:35;5.65;;;3.70;;
70975;SDS011;58635;51.198;6.010;2022-11-28T09:13:02;7.95;;;4.70;;
70975;SDS011;58635;51.198;6.010;2022-11-28T09:15:27;7.38;;;5.47;;
70975;SDS011;58635;51.198;6.010;2022-11-28T09:17:53;8.07;;;6.10;;
70975;SDS011;58635;51.198;6.010;2022-11-28T09:20:18;7.97;;;4.60;;
70975;SDS011;58635;51.198;6.010;2022-11-28T09:22:45;5.65;;;3.85;;
70975;SDS011;58635;51.198;6.010;2022-11-28T09:25:14;5.75;;;3.72;;
70975;SDS011;58635;51.198;6.010;2022-11-28T09:27:39;7.25;;;4.30;;
70975;SDS011;58635;51.198;6.010;2022-11-28T09:30:05;6.38;;;4.28;;
70975;SDS011;58635;51.198;6.010;2022-11-28T09:32:32;5.32;;;3.72;;
70975;SDS011;58635;51.198;6.010;2022-11-28T09:34:58;7.20;;;3.97;;
70975;SDS011;58635;51.198;6.010;2022-11-28T09:37:23;5.25;;;3.70;;
70975;SDS011;58635;51.198;6.010;2022-11-28T09:39:49;6.07;;;3.70;;
70975;SDS011;58635;51.198;6.010;2022-11-28T09:42:29;6.05;;;3.65;;
70975;SDS011;58635;51.198;6.010;2022-11-28T09:45:09;5.82;;;3.90;;
70975;SDS011;58635;51.198;6.010;2022-11-28T09:47:42;6.47;;;4.20;;
70975;SDS011;58635;51.198;6.010;2022-11-28T09:50:22;4.82;;;3.30;;
70975;SDS011;58635;51.198;6.010;2022-11-28T09:55:36;5.25;;;3.45;;
70975;SDS011;58635;51.198;6.010;2022-11-28T09:58:16;5.15;;;4.10;;
70975;SDS011;58635;51.198;6.010;2022-11-28T10:03:40;4.85;;;3.58;;
70975;SDS011;58635;51.198;6.010;2022-11-28T10:19:46;5.23;;;3.23;;
70975;SDS011;58635;51.198;6.010;2022-11-28T10:22:18;5.43;;;3.70;;
70975;SDS011;58635;51.198;6.010;2022-11-28T10:24:47;6.03;;;3.80;;
70975;SDS011;58635;51.198;6.010;2022-11-28T10:27:16;5.43;;;3.72;;
70975;SDS011;58635;51.198;6.010;2022-11-28T10:29:52;5.30;;;3.42;;
70975;SDS011;58635;51.198;6.010;2022-11-28T10:32:29;7.00;;;5.30;;
70975;SDS011;58635;51.198;6.010;2022-11-28T10:35:05;7.40;;;5.65;;
70975;SDS011;58635;51.198;6.010;2022-11-28T10:37:52;5.25;;;3.90;;
70975;SDS011;58635;51.198;6.010;2022-11-28T10:40:37;5.85;;;3.65;;
70975;SDS011;58635;51.198;6.010;2022-11-28T10:54:43;5.28;;;3.97;;
70975;SDS011;58635;51.198;6.010;2022-11-28T10:57:11;6.07;;;3.92;;
70975;SDS011;58635;51.198;6.010;2022-11-28T11:00:11;5.10;;;3.83;;
70975;SDS011;58635;51.198;6.010;2022-11-28T11:02:52;5.03;;;3.75;;
70975;SDS011;58635;51.198;6.010;2022-11-28T11:05:20;6.65;;;4.30;;
70975;SDS011;58635;51.198;6.010;2022-11-28T11:07:51;5.93;;;4.28;;
70975;SDS011;58635;51.198;6.010;2022-11-28T11:10:25;6.00;;;4.38;;
70975;SDS011;58635;51.198;6.010;2022-11-28T11:12:56;6.32;;;3.75;;
70975;SDS011;58635;51.198;6.010;2022-11-28T11:15:32;6.38;;;4.00;;
70975;SDS011;58635;51.198;6.010;2022-11-28T11:18:17;6.13;;;4.43;;
70975;SDS011;58635;51.198;6.010;2022-11-28T11:20:49;5.28;;;4.13;;
70975;SDS011;58635;51.198;6.010;2022-11-28T11:23:17;6.55;;;4.47;;
70975;SDS011;58635;51.198;6.010;2022-11-28T11:25:51;5.65;;;4.13;;
70975;SDS011;58635;51.198;6.010;2022-11-28T11:33:31;5.05;;;3.63;;
70975;SDS011;58635;51.198;6.010;2022-11-28T11:36:01;5.90;;;4.40;;
70975;SDS011;58635;51.198;6.010;2022-11-28T11:38:29;7.38;;;4.00;;
70975;SDS011;58635;51.198;6.010;2022-11-28T11:40:57;6.82;;;4.10;;
70975;SDS011;58635;51.198;6.010;2022-11-28T11:43:32;6.05;;;4.00;;
70975;SDS011;58635;51.198;6.010;2022-11-28T11:48:49;6.13;;;4.07;;
70975;SDS011;58635;51.198;6.010;2022-11-28T11:53:45;9.23;;;5.57;;
70975;SDS011;58635;51.198;6.010;2022-11-28T11:56:11;7.53;;;5.43;;
70975;SDS011;58635;51.198;6.010;2022-11-28T12:01:09;7.35;;;4.25;;
70975;SDS011;58635;51.198;6.010;2022-11-28T12:03:46;6.75;;;4.22;;
70975;SDS011;58635;51.198;6.010;2022-11-28T12:06:23;10.00;;;5.38;;
70975;SDS011;58635;51.198;6.010;2022-11-28T12:08:53;11.23;;;5.55;;
70975;SDS011;58635;51.198;6.010;2022-11-28T12:11:49;10.63;;;5.10;;
70975;SDS011;58635;51.198;6.010;2022-11-28T12:14:27;9.63;;;5.45;;
70975;SDS011;58635;51.198;6.010;2022-11-28T12:25:43;7.85;;;5.25;;
70975;SDS011;58635;51.198;6.010;2022-11-28T12:36:38;9.57;;;5.57;;
70975;SDS011;58635;51.198;6.010;2022-11-28T12:39:35;7.88;;;5.30;;
70975;SDS011;58635;51.198;6.010;2022-11-28T12:50:38;11.52;;;5.55;;
70975;SDS011;58635;51.198;6.010;2022-11-28T12:59:29;8.85;;;5.60;;
70975;SDS011;58635;51.198;6.010;2022-11-28T13:07:42;9.65;;;5.57;;
70975;SDS011;58635;51.198;6.010;2022-11-28T13:10:23;10.68;;;5.00;;
70975;SDS011;58635;51.198;6.010;2022-11-28T13:13:03;11.60;;;5.65;;
70975;SDS011;58635;51.198;6.010;2022-11-28T13:23:39;8.32;;;4.68;;
70975;SDS011;58635;51.198;6.010;2022-11-28T13:32:06;8.68;;;5.10;;
70975;SDS011;58635;51.198;6.010;2022-11-28T13:34:43;10.02;;;5.35;;
70975;SDS011;58635;51.198;6.010;2022-11-28T13:39:42;11.23;;;5.70;;
70975;SDS011;58635;51.198;6.010;2022-11-28T13:44:52;10.43;;;5.72;;
70975;SDS011;58635;51.198;6.010;2022-11-28T13:47:31;9.82;;;5.30;;
70975;SDS011;58635;51.198;6.010;2022-11-28T13:55:36;11.02;;;5.32;;
70975;SDS011;58635;51.198;6.010;2022-11-28T13:58:16;7.97;;;5.07;;
70975;SDS011;58635;51.198;6.010;2022-11-28T14:00:50;9.35;;;5.15;;
70975;SDS011;58635;51.198;6.010;2022-11-28T14:03:28;10.20;;;5.32;;
70975;SDS011;58635;51.198;6.010;2022-11-28T14:05:58;7.80;;;5.25;;
70975;SDS011;58635;51.198;6.010;2022-11-28T14:08:37;10.50;;;5.43;;
70975;SDS011;58635;51.198;6.010;2022-11-28T14:19:36;8.10;;;4.60;;
70975;SDS011;58635;51.198;6.010;2022-11-28T14:27:51;10.07;;;5.90;;
70975;SDS011;58635;51.198;6.010;2022-11-28T14:30:21;10.35;;;6.03;;
70975;SDS011;58635;51.198;6.010;2022-11-28T14:32:53;9.90;;;5.30;;
70975;SDS011;58635;51.198;6.010;2022-11-28T14:41:01;8.43;;;4.93;;
70975;SDS011;58635;51.198;6.010;2022-11-28T14:43:33;7.63;;;5.43;;
70975;SDS011;58635;51.198;6.010;2022-11-28T14:54:22;9.15;;;5.63;;
70975;SDS011;58635;51.198;6.010;2022-11-28T14:56:51;9.15;;;5.00;;
70975;SDS011;58635;51.198;6.010;2022-11-28T14:59:16;10.30;;;5.40;;
70975;SDS011;58635;51.198;6.010;2022-11-28T15:05:12;10.43;;;5.90;;
70975;SDS011;58635;51.198;6.010;2022-11-28T15:12:44;7.28;;;5.18;;
70975;SDS011;58635;51.198;6.010;2022-11-28T15:15:23;9.95;;;5.45;;
70975;SDS011;58635;51.198;6.010;2022-11-28T15:17:49;7.60;;;4.93;;
70975;SDS011;58635;51.198;6.010;2022-11-28T15:20:28;10.38;;;5.57;;
70975;SDS011;58635;51.198;6.010;2022-11-28T15:22:59;9.98;;;6.38;;
70975;SDS011;58635;51.198;6.010;2022-11-28T15:25:26;11.30;;;5.75;;
70975;SDS011;58635;51.198;6.010;2022-11-28T15:27:53;11.10;;;6.15;;
70975;SDS011;58635;51.198;6.010;2022-11-28T15:30:24;9.82;;;5.45;;
70975;SDS011;58635;51.198;6.010;2022-11-28T15:32:59;8.40;;;5.15;;
70975;SDS011;58635;51.198;6.010;2022-11-28T15:35:25;10.15;;;5.93;;
70975;SDS011;58635;51.198;6.010;2022-11-28T15:37:55;14.23;;;5.57;;
70975;SDS011;58635;51.198;6.010;2022-11-28T15:40:28;11.02;;;5.70;;
70975;SDS011;58635;51.198;6.010;2022-11-28T15:42:57;7.85;;;5.20;;
70975;SDS011;58635;51.198;6.010;2022-11-28T15:45:24;12.43;;;5.40;;
70975;SDS011;58635;51.198;6.010;2022-11-28T15:47:52;10.85;;;5.00;;
70975;SDS011;58635;51.198;6.010;2022-11-28T15:50:19;11.98;;;5.57;;
70975;SDS011;58635;51.198;6.010;2022-11-28T15:55:26;10.18;;;6.30;;
70975;SDS011;58635;51.198;6.010;2022-11-28T16:00:46;9.98;;;5.85;;
70975;SDS011;58635;51.198;6.010;2022-11-28T16:03:17;9.70;;;5.68;;
70975;SDS011;58635;51.198;6.010;2022-11-28T16:05:46;12.27;;;5.78;;
70975;SDS011;58635;51.198;6.010;2022-11-28T16:08:22;9.65;;;6.10;;
70975;SDS011;58635;51.198;6.010;2022-11-28T16:10:52;10.30;;;5.78;;
70975;SDS011;58635;51.198;6.010;2022-11-28T16:13:19;8.98;;;5.22;;
70975;SDS011;58635;51.198;6.010;2022-11-28T16:15:46;7.15;;;5.25;;
70975;SDS011;58635;51.198;6.010;2022-11-28T16:18:14;9.90;;;5.82;;
70975;SDS011;58635;51.198;6.010;2022-11-28T16:20:40;11.60;;;5.78;;
70975;SDS011;58635;51.198;6.010;2022-11-28T16:23:07;10.38;;;5.68;;
70975;SDS011;58635;51.198;6.010;2022-11-28T16:26:01;9.18;;;5.75;;
70975;SDS011;58635;51.198;6.010;2022-11-28T16:28:35;12.25;;;6.20;;
70975;SDS011;58635;51.198;6.010;2022-11-28T16:31:09;11.85;;;6.45;;
70975;SDS011;58635;51.198;6.010;2022-11-28T16:33:44;10.80;;;6.57;;
70975;SDS011;58635;51.198;6.010;2022-11-28T16:38:43;10.98;;;7.00;;
70975;SDS011;58635;51.198;6.010;2022-11-28T16:41:16;9.52;;;7.22;;
70975;SDS011;58635;51.198;6.010;2022-11-28T16:43:51;12.63;;;7.75;;
70975;SDS011;58635;51.198;6.010;2022-11-28T16:46:20;9.88;;;7.43;;
70975;SDS011;58635;51.198;6.010;2022-11-28T16:48:57;12.82;;;8.10;;
70975;SDS011;58635;51.198;6.010;2022-11-28T16:51:27;13.15;;;8.85;;
70975;SDS011;58635;51.198;6.010;2022-11-28T16:53:55;17.45;;;8.68;;
70975;SDS011;58635;51.198;6.010;2022-11-28T16:56:26;11.35;;;7.65;;
70975;SDS011;58635;51.198;6.010;2022-11-28T16:59:17;15.35;;;8.95;;
70975;SDS011;58635;51.198;6.010;2022-11-28T17:01:48;12.18;;;7.70;;
70975;SDS011;58635;51.198;6.010;2022-11-28T17:04:27;14.93;;;8.73;;
70975;SDS011;58635;51.198;6.010;2022-11-28T17:06:54;13.43;;;8.02;;
70975;SDS011;58635;51.198;6.010;2022-11-28T17:09:22;12.05;;;8.60;;
70975;SDS011;58635;51.198;6.010;2022-11-28T17:14:16;14.45;;;8.25;;
70975;SDS011;58635;51.198;6.010;2022-11-28T17:16:42;11.20;;;8.27;;
70975;SDS011;58635;51.198;6.010;2022-11-28T17:19:07;12.50;;;8.05;;
70975;SDS011;58635;51.198;6.010;2022-11-28T17:21:35;14.32;;;8.45;;
70975;SDS011;58635;51.198;6.010;2022-11-28T17:24:12;14.18;;;9.40;;
70975;SDS011;58635;51.198;6.010;2022-11-28T17:26:41;15.15;;;8.38;;
70975;SDS011;58635;51.198;6.010;2022-11-28T17:29:10;13.77;;;8.38;;
70975;SDS011;58635;51.198;6.010;2022-11-28T17:31:36;12.20;;;8.32;;
70975;SDS011;58635;51.198;6.010;2022-11-28T17:34:08;12.48;;;8.30;;
70975;SDS011;58635;51.198;6.010;2022-11-28T17:36:42;14.85;;;8.73;;
70975;SDS011;58635;51.198;6.010;2022-11-28T17:39:09;13.18;;;9.55;;
70975;SDS011;58635;51.198;6.010;2022-11-28T17:41:35;15.73;;;10.73;;
70975;SDS011;58635;51.198;6.010;2022-11-28T17:44:00;16.95;;;10.38;;
70975;SDS011;58635;51.198;6.010;2022-11-28T17:46:26;19.55;;;11.93;;
70975;SDS011;58635;51.198;6.010;2022-11-28T17:48:51;16.85;;;10.68;;
70975;SDS011;58635;51.198;6.010;2022-11-28T17:51:17;15.35;;;11.98;;
70975;SDS011;58635;51.198;6.010;2022-11-28T17:53:42;17.35;;;11.55;;
70975;SDS011;58635;51.198;6.010;2022-11-28T17:56:11;17.70;;;11.85;;
70975;SDS011;58635;51.198;6.010;2022-11-28T17:58:36;18.10;;;11.52;;
70975;SDS011;58635;51.198;6.010;2022-11-28T18:01:02;16.00;;;11.57;;
70975;SDS011;58635;51.198;6.010;2022-11-28T18:03:34;15.07;;;10.07;;
70975;SDS011;58635;51.198;6.010;2022-11-28T18:06:00;16.17;;;9.80;;
70975;SDS011;58635;51.198;6.010;2022-11-28T18:08:25;16.02;;;11.45;;
70975;SDS011;58635;51.198;6.010;2022-11-28T18:11:00;15.35;;;10.77;;
70975;SDS011;58635;51.198;6.010;2022-11-28T18:13:30;16.48;;;10.70;;
70975;SDS011;58635;51.198;6.010;2022-11-28T18:15:56;17.20;;;10.23;;
70975;SDS011;58635;51.198;6.010;2022-11-28T18:18:22;15.05;;;10.93;;
70975;SDS011;58635;51.198;6.010;2022-11-28T18:20:47;16.38;;;10.43;;
70975;SDS011;58635;51.198;6.010;2022-11-28T18:23:13;15.57;;;10.38;;
70975;SDS011;58635;51.198;6.010;2022-11-28T18:25:42;15.75;;;9.88;;